PLI1573 SPJC-SPQU
Flight info
| Callsign | PLI1573 |
|---|---|
| Flight time | 1h 7m |
| Altitude | 33000 |
| Route | ASOXI UM548 AKSOL UT222 ASUPA |
| Aircraft | B722/M-SDFHIRW/S |
Departure
| Time | 2026-04-27 03:07 |
|---|---|
| Airport | Jorge Chávez International Airport (SPJC) |
Arrival
| Time | 2026-04-27 04:14 |
|---|---|
| Airport | Rodríguez Ballón International Airport (SPQU) |
| Time | Latitude | Longitude | Altitude | Speed | Heading |
|---|---|---|---|---|---|
| 2026-04-27 02:19 | -12.02029 | -77.11221 | 123 ft | 0 kts | 244° |
| 2026-04-27 02:40 | -12.02023 | -77.11208 | 123 ft | 2 kts | 244° |
| 2026-04-27 02:41 | -12.02018 | -77.11193 | 123 ft | 2 kts | 273° |
| 2026-04-27 02:41 | -12.02022 | -77.11179 | 123 ft | 2 kts | 303° |
| 2026-04-27 02:41 | -12.02033 | -77.11168 | 123 ft | 2 kts | 333° |
| 2026-04-27 02:41 | -12.02044 | -77.11163 | 123 ft | 2 kts | 339° |
| 2026-04-27 02:42 | -12.02056 | -77.11158 | 123 ft | 2 kts | 333° |
| 2026-04-27 02:42 | -12.02062 | -77.11155 | 123 ft | 0 kts | 333° |
| 2026-04-27 03:01 | -12.02041 | -77.11165 | 123 ft | 5 kts | 335° |
| 2026-04-27 03:01 | -12.02005 | -77.11182 | 123 ft | 5 kts | 335° |
| 2026-04-27 03:02 | -12.01967 | -77.11203 | 123 ft | 6 kts | 321° |
| 2026-04-27 03:02 | -12.01938 | -77.11242 | 123 ft | 6 kts | 301° |
| 2026-04-27 03:02 | -12.01912 | -77.11287 | 123 ft | 7 kts | 299° |
| 2026-04-27 03:02 | -12.01887 | -77.11336 | 123 ft | 8 kts | 298° |
| 2026-04-27 03:03 | -12.01852 | -77.11384 | 123 ft | 8 kts | 324° |
| 2026-04-27 03:03 | -12.01638 | -77.11491 | 123 ft | 25 kts | 334° |
| 2026-04-27 03:03 | -12.01468 | -77.11575 | 123 ft | 28 kts | 334° |
| 2026-04-27 03:04 | -12.01287 | -77.11664 | 123 ft | 28 kts | 334° |
| 2026-04-27 03:04 | -12.01104 | -77.11754 | 123 ft | 28 kts | 334° |
| 2026-04-27 03:04 | -12.00921 | -77.11843 | 123 ft | 28 kts | 334° |
| 2026-04-27 03:04 | -12.00776 | -77.11916 | 123 ft | 17 kts | 334° |
| 2026-04-27 03:05 | -12.00686 | -77.11979 | 123 ft | 15 kts | 297° |
| 2026-04-27 03:05 | -12.00687 | -77.12042 | 123 ft | 0 kts | 248° |
| 2026-04-27 03:06 | -12.00705 | -77.12081 | 123 ft | 12 kts | 232° |
| 2026-04-27 03:06 | -12.00832 | -77.12099 | 123 ft | 25 kts | 160° |
| 2026-04-27 03:06 | -12.01097 | -77.11970 | 123 ft | 70 kts | 155° |
| 2026-04-27 03:07 | -12.01764 | -77.11642 | 123 ft | 139 kts | 154° |
| 2026-04-27 03:07 | -12.02744 | -77.11146 | 402 ft | 162 kts | 155° |
| 2026-04-27 03:07 | -12.03751 | -77.10675 | 1038 ft | 157 kts | 159° |
| 2026-04-27 03:07 | -12.04769 | -77.10297 | 1648 ft | 155 kts | 165° |
| 2026-04-27 03:08 | -12.05761 | -77.09843 | 2081 ft | 164 kts | 153° |
| 2026-04-27 03:08 | -12.06739 | -77.09287 | 2673 ft | 160 kts | 153° |
| 2026-04-27 03:08 | -12.07711 | -77.08721 | 3170 ft | 163 kts | 153° |
| 2026-04-27 03:08 | -12.08713 | -77.08124 | 3603 ft | 168 kts | 152° |
| 2026-04-27 03:09 | -12.09699 | -77.07493 | 4152 ft | 166 kts | 150° |
| 2026-04-27 03:09 | -12.10668 | -77.06806 | 4565 ft | 172 kts | 147° |
| 2026-04-27 03:09 | -12.11649 | -77.06057 | 5009 ft | 174 kts | 149° |
| 2026-04-27 03:09 | -12.12669 | -77.05399 | 5475 ft | 173 kts | 150° |
| 2026-04-27 03:10 | -12.13668 | -77.04665 | 5858 ft | 179 kts | 146° |
| 2026-04-27 03:10 | -12.14680 | -77.03899 | 6256 ft | 181 kts | 151° |
| 2026-04-27 03:10 | -12.15781 | -77.03282 | 6671 ft | 179 kts | 161° |
| 2026-04-27 03:10 | -12.16934 | -77.02871 | 7054 ft | 180 kts | 163° |
| 2026-04-27 03:11 | -12.18090 | -77.02264 | 7353 ft | 190 kts | 155° |
| 2026-04-27 03:11 | -12.19336 | -77.01564 | 7357 ft | 213 kts | 155° |
| 2026-04-27 03:11 | -12.20694 | -77.00806 | 7527 ft | 224 kts | 155° |
| 2026-04-27 03:11 | -12.21938 | -76.99784 | 7727 ft | 236 kts | 127° |
| 2026-04-27 03:12 | -12.22885 | -76.98352 | 7971 ft | 240 kts | 131° |
| 2026-04-27 03:12 | -12.24042 | -76.97078 | 8215 ft | 243 kts | 139° |
| 2026-04-27 03:12 | -12.25322 | -76.95970 | 8454 ft | 245 kts | 144° |
| 2026-04-27 03:12 | -12.26707 | -76.94866 | 8732 ft | 247 kts | 145° |
| 2026-04-27 03:13 | -12.28075 | -76.93821 | 8909 ft | 252 kts | 146° |
| 2026-04-27 03:13 | -12.29552 | -76.92735 | 8966 ft | 261 kts | 147° |
| 2026-04-27 03:13 | -12.31106 | -76.91644 | 8990 ft | 269 kts | 148° |
| 2026-04-27 03:13 | -12.32718 | -76.90552 | 8992 ft | 276 kts | 149° |
| 2026-04-27 03:14 | -12.34362 | -76.89451 | 8988 ft | 282 kts | 149° |
| 2026-04-27 03:14 | -12.36044 | -76.88331 | 8989 ft | 286 kts | 149° |
| 2026-04-27 03:14 | -12.37736 | -76.87208 | 8993 ft | 289 kts | 149° |
| 2026-04-27 03:14 | -12.39467 | -76.86057 | 8996 ft | 291 kts | 149° |
| 2026-04-27 03:15 | -12.41185 | -76.84911 | 9171 ft | 286 kts | 148° |
| 2026-04-27 03:15 | -12.42872 | -76.83778 | 9168 ft | 286 kts | 148° |
| 2026-04-27 03:15 | -12.44551 | -76.82643 | 9191 ft | 282 kts | 148° |
| 2026-04-27 03:15 | -12.46213 | -76.81513 | 9295 ft | 276 kts | 148° |
| 2026-04-27 03:16 | -12.47796 | -76.80429 | 9465 ft | 269 kts | 147° |
| 2026-04-27 03:16 | -12.49347 | -76.79359 | 9635 ft | 264 kts | 147° |
| 2026-04-27 03:16 | -12.50892 | -76.78284 | 9809 ft | 259 kts | 147° |
| 2026-04-27 03:16 | -12.52391 | -76.77232 | 9982 ft | 255 kts | 147° |
| 2026-04-27 03:17 | -12.53868 | -76.76196 | 10154 ft | 251 kts | 148° |
| 2026-04-27 03:17 | -12.55502 | -76.75678 | 10315 ft | 243 kts | 176° |
| 2026-04-27 03:17 | -12.57168 | -76.75383 | 10487 ft | 240 kts | 161° |
| 2026-04-27 03:17 | -12.58727 | -76.74698 | 10668 ft | 239 kts | 156° |
| 2026-04-27 03:18 | -12.60238 | -76.73943 | 10844 ft | 237 kts | 155° |
| 2026-04-27 03:18 | -12.61698 | -76.73194 | 11015 ft | 235 kts | 155° |
| 2026-04-27 03:18 | -12.63154 | -76.72442 | 11188 ft | 234 kts | 155° |
| 2026-04-27 03:18 | -12.64621 | -76.71684 | 11362 ft | 232 kts | 155° |
| 2026-04-27 03:19 | -12.66081 | -76.70927 | 11534 ft | 231 kts | 155° |
| 2026-04-27 03:19 | -12.67525 | -76.70177 | 11708 ft | 230 kts | 155° |
| 2026-04-27 03:19 | -12.68977 | -76.69415 | 11882 ft | 228 kts | 151° |
| 2026-04-27 03:19 | -12.70012 | -76.68196 | 12037 ft | 227 kts | 113° |
| 2026-04-27 03:20 | -12.70268 | -76.66670 | 12215 ft | 226 kts | 96° |
| 2026-04-27 03:20 | -12.70334 | -76.65037 | 12389 ft | 225 kts | 92° |
| 2026-04-27 03:20 | -12.70360 | -76.63401 | 12565 ft | 224 kts | 92° |
| 2026-04-27 03:20 | -12.70382 | -76.61801 | 12737 ft | 223 kts | 92° |
| 2026-04-27 03:21 | -12.70404 | -76.60173 | 12914 ft | 222 kts | 92° |
| 2026-04-27 03:21 | -12.70425 | -76.58570 | 13088 ft | 220 kts | 92° |
| 2026-04-27 03:21 | -12.70444 | -76.56999 | 13259 ft | 219 kts | 92° |
| 2026-04-27 03:21 | -12.70463 | -76.55449 | 13429 ft | 217 kts | 92° |
| 2026-04-27 03:22 | -12.70476 | -76.53886 | 13601 ft | 216 kts | 92° |
| 2026-04-27 03:22 | -12.70490 | -76.52357 | 13770 ft | 214 kts | 92° |
| 2026-04-27 03:22 | -12.70503 | -76.50845 | 13938 ft | 212 kts | 92° |
| 2026-04-27 03:22 | -12.70659 | -76.49352 | 14083 ft | 206 kts | 116° |
| 2026-04-27 03:23 | -12.71371 | -76.48081 | 14269 ft | 200 kts | 128° |
| 2026-04-27 03:23 | -12.72201 | -76.46915 | 14435 ft | 198 kts | 130° |
| 2026-04-27 03:23 | -12.73090 | -76.45722 | 14511 ft | 215 kts | 130° |
| 2026-04-27 03:23 | -12.74050 | -76.44452 | 14742 ft | 229 kts | 130° |
| 2026-04-27 03:24 | -12.75089 | -76.43108 | 14958 ft | 246 kts | 131° |
| 2026-04-27 03:24 | -12.76201 | -76.41695 | 15168 ft | 264 kts | 131° |
| 2026-04-27 03:24 | -12.77402 | -76.40180 | 15375 ft | 283 kts | 131° |
| 2026-04-27 03:24 | -12.78726 | -76.38519 | 15583 ft | 303 kts | 131° |
| 2026-04-27 03:25 | -12.80120 | -76.36773 | 15785 ft | 323 kts | 131° |
| 2026-04-27 03:25 | -12.81604 | -76.34920 | 15984 ft | 343 kts | 131° |
| 2026-04-27 03:25 | -12.83218 | -76.32912 | 16183 ft | 363 kts | 131° |
| 2026-04-27 03:25 | -12.84840 | -76.30773 | 16377 ft | 382 kts | 129° |
| 2026-04-27 03:26 | -12.86554 | -76.28526 | 16571 ft | 401 kts | 130° |
| 2026-04-27 03:26 | -12.88420 | -76.26248 | 16763 ft | 418 kts | 133° |
| 2026-04-27 03:26 | -12.90428 | -76.23963 | 16954 ft | 434 kts | 134° |
| 2026-04-27 03:26 | -12.92589 | -76.21631 | 17144 ft | 450 kts | 136° |
| 2026-04-27 03:27 | -12.94829 | -76.19277 | 17331 ft | 465 kts | 136° |
| 2026-04-27 03:27 | -12.97174 | -76.16829 | 17519 ft | 479 kts | 136° |
| 2026-04-27 03:27 | -12.99583 | -76.14297 | 17705 ft | 493 kts | 136° |
| 2026-04-27 03:27 | -13.02040 | -76.11678 | 18173 ft | 499 kts | 135° |
| 2026-04-27 03:28 | -13.04439 | -76.09082 | 19076 ft | 495 kts | 134° |
| 2026-04-27 03:28 | -13.06846 | -76.06455 | 19694 ft | 497 kts | 134° |
| 2026-04-27 03:28 | -13.09264 | -76.03802 | 20263 ft | 500 kts | 133° |
| 2026-04-27 03:28 | -13.11674 | -76.01151 | 20751 ft | 504 kts | 133° |
| 2026-04-27 03:29 | -13.14131 | -75.98439 | 21188 ft | 509 kts | 132° |
| 2026-04-27 03:29 | -13.16585 | -75.95700 | 21597 ft | 514 kts | 132° |
| 2026-04-27 03:29 | -13.19017 | -75.92960 | 22025 ft | 518 kts | 132° |
| 2026-04-27 03:29 | -13.21483 | -75.90173 | 22451 ft | 521 kts | 132° |
| 2026-04-27 03:30 | -13.23994 | -75.87344 | 22875 ft | 524 kts | 132° |
| 2026-04-27 03:30 | -13.26495 | -75.84541 | 23276 ft | 528 kts | 132° |
| 2026-04-27 03:30 | -13.28974 | -75.81779 | 23647 ft | 531 kts | 132° |
| 2026-04-27 03:30 | -13.31528 | -75.78944 | 24006 ft | 535 kts | 132° |
| 2026-04-27 03:31 | -13.34099 | -75.76109 | 24361 ft | 538 kts | 133° |
| 2026-04-27 03:31 | -13.36719 | -75.73244 | 24711 ft | 541 kts | 133° |
| 2026-04-27 03:31 | -13.39326 | -75.70402 | 25056 ft | 544 kts | 133° |
| 2026-04-27 03:31 | -13.41985 | -75.67507 | 25373 ft | 547 kts | 133° |
| 2026-04-27 03:32 | -13.44627 | -75.64629 | 25687 ft | 550 kts | 133° |
| 2026-04-27 03:32 | -13.47313 | -75.61702 | 25993 ft | 553 kts | 133° |
| 2026-04-27 03:32 | -13.49998 | -75.58774 | 26286 ft | 555 kts | 133° |
| 2026-04-27 03:32 | -13.52689 | -75.55835 | 26562 ft | 558 kts | 133° |
| 2026-04-27 03:33 | -13.55415 | -75.52857 | 26834 ft | 560 kts | 133° |
| 2026-04-27 03:33 | -13.58140 | -75.49892 | 27094 ft | 563 kts | 133° |
| 2026-04-27 03:33 | -13.60868 | -75.46931 | 27353 ft | 565 kts | 133° |
| 2026-04-27 03:33 | -13.63596 | -75.43971 | 27586 ft | 567 kts | 133° |
| 2026-04-27 03:34 | -13.66374 | -75.40954 | 27811 ft | 569 kts | 133° |
| 2026-04-27 03:34 | -13.69121 | -75.37972 | 28026 ft | 571 kts | 133° |
| 2026-04-27 03:34 | -13.71911 | -75.34944 | 28224 ft | 573 kts | 133° |
| 2026-04-27 03:34 | -13.74689 | -75.31928 | 28405 ft | 575 kts | 133° |
| 2026-04-27 03:35 | -13.77522 | -75.28849 | 28579 ft | 576 kts | 133° |
| 2026-04-27 03:35 | -13.80310 | -75.25818 | 28729 ft | 578 kts | 133° |
| 2026-04-27 03:35 | -13.83104 | -75.22776 | 28872 ft | 579 kts | 133° |
| 2026-04-27 03:35 | -13.85904 | -75.19726 | 29008 ft | 580 kts | 133° |
| 2026-04-27 03:36 | -13.88726 | -75.16648 | 29190 ft | 579 kts | 133° |
| 2026-04-27 03:36 | -13.91529 | -75.13592 | 29972 ft | 567 kts | 133° |
| 2026-04-27 03:36 | -13.94267 | -75.10606 | 30614 ft | 558 kts | 133° |
| 2026-04-27 03:36 | -13.96874 | -75.07770 | 31136 ft | 553 kts | 133° |
| 2026-04-27 03:37 | -13.99563 | -75.04851 | 31492 ft | 551 kts | 133° |
| 2026-04-27 03:37 | -14.02241 | -75.01944 | 31790 ft | 551 kts | 133° |
| 2026-04-27 03:37 | -14.04927 | -74.99025 | 31985 ft | 552 kts | 132° |
| 2026-04-27 03:37 | -14.07638 | -74.96069 | 32116 ft | 555 kts | 132° |
| 2026-04-27 03:38 | -14.10255 | -74.93206 | 32232 ft | 558 kts | 132° |
| 2026-04-27 03:38 | -14.12954 | -74.90249 | 32361 ft | 559 kts | 132° |
| 2026-04-27 03:38 | -14.15673 | -74.87267 | 32510 ft | 561 kts | 132° |
| 2026-04-27 03:38 | -14.18384 | -74.84290 | 32655 ft | 562 kts | 132° |
| 2026-04-27 03:39 | -14.21102 | -74.81295 | 32786 ft | 563 kts | 132° |
| 2026-04-27 03:39 | -14.23828 | -74.78291 | 32902 ft | 564 kts | 132° |
| 2026-04-27 03:39 | -14.26562 | -74.75279 | 32976 ft | 565 kts | 132° |
| 2026-04-27 03:40 | -14.32079 | -74.69226 | 33011 ft | 566 kts | 132° |
| 2026-04-27 03:40 | -14.37562 | -74.63228 | 33004 ft | 568 kts | 132° |
| 2026-04-27 03:41 | -14.43103 | -74.57163 | 33002 ft | 569 kts | 132° |
| 2026-04-27 03:41 | -14.48651 | -74.51077 | 33003 ft | 570 kts | 132° |
| 2026-04-27 03:42 | -14.54153 | -74.45030 | 33002 ft | 571 kts | 132° |
| 2026-04-27 03:42 | -14.59676 | -74.38955 | 33002 ft | 572 kts | 132° |
| 2026-04-27 03:43 | -14.65215 | -74.32858 | 33001 ft | 572 kts | 132° |
| 2026-04-27 03:43 | -14.70675 | -74.26846 | 33002 ft | 572 kts | 132° |
| 2026-04-27 03:44 | -14.76212 | -74.20741 | 33002 ft | 573 kts | 132° |
| 2026-04-27 03:44 | -14.81597 | -74.14549 | 33008 ft | 571 kts | 127° |
| 2026-04-27 03:45 | -14.86377 | -74.07840 | 33172 ft | 567 kts | 122° |
| 2026-04-27 03:45 | -14.90785 | -74.00935 | 33343 ft | 565 kts | 121° |
| 2026-04-27 03:46 | -14.95123 | -73.94169 | 33495 ft | 565 kts | 122° |
| 2026-04-27 03:46 | -14.99544 | -73.87508 | 33576 ft | 567 kts | 123° |
| 2026-04-27 03:47 | -15.04125 | -73.80740 | 33547 ft | 572 kts | 124° |
| 2026-04-27 03:47 | -15.08721 | -73.73981 | 33519 ft | 576 kts | 124° |
| 2026-04-27 03:48 | -15.13262 | -73.67287 | 33466 ft | 579 kts | 124° |
| 2026-04-27 03:48 | -15.17956 | -73.60323 | 33423 ft | 581 kts | 124° |
| 2026-04-27 03:49 | -15.22640 | -73.53339 | 33399 ft | 582 kts | 124° |
| 2026-04-27 03:49 | -15.27356 | -73.46313 | 33406 ft | 583 kts | 124° |
| 2026-04-27 03:50 | -15.32058 | -73.39278 | 33408 ft | 583 kts | 124° |
| 2026-04-27 03:50 | -15.36739 | -73.32251 | 33405 ft | 583 kts | 123° |
| 2026-04-27 03:51 | -15.41460 | -73.25172 | 33407 ft | 583 kts | 123° |
| 2026-04-27 03:51 | -15.46143 | -73.18148 | 33408 ft | 583 kts | 123° |
| 2026-04-27 03:52 | -15.50776 | -73.11202 | 33408 ft | 583 kts | 123° |
| 2026-04-27 03:52 | -15.55389 | -73.04295 | 33408 ft | 583 kts | 123° |
| 2026-04-27 03:53 | -15.60102 | -72.97224 | 33406 ft | 579 kts | 123° |
| 2026-04-27 03:53 | -15.64689 | -72.90309 | 33123 ft | 569 kts | 123° |
| 2026-04-27 03:53 | -15.66941 | -72.86886 | 32896 ft | 566 kts | 123° |
| 2026-04-27 03:54 | -15.69183 | -72.83469 | 32670 ft | 564 kts | 123° |
| 2026-04-27 03:54 | -15.71443 | -72.80032 | 32441 ft | 562 kts | 124° |
| 2026-04-27 03:54 | -15.73686 | -72.76630 | 32214 ft | 560 kts | 124° |
| 2026-04-27 03:54 | -15.75943 | -72.73222 | 31986 ft | 558 kts | 124° |
| 2026-04-27 03:55 | -15.78186 | -72.69843 | 31759 ft | 557 kts | 124° |
| 2026-04-27 03:55 | -15.80385 | -72.66528 | 31536 ft | 556 kts | 125° |
| 2026-04-27 03:55 | -15.82569 | -72.63238 | 31314 ft | 555 kts | 125° |
| 2026-04-27 03:55 | -15.84796 | -72.59888 | 30994 ft | 554 kts | 125° |
| 2026-04-27 03:56 | -15.87033 | -72.56512 | 30528 ft | 550 kts | 126° |
| 2026-04-27 03:56 | -15.89201 | -72.53231 | 30010 ft | 548 kts | 126° |
| 2026-04-27 03:56 | -15.91324 | -72.50011 | 29476 ft | 537 kts | 126° |
| 2026-04-27 03:56 | -15.93416 | -72.46830 | 29034 ft | 508 kts | 127° |
| 2026-04-27 03:57 | -15.95348 | -72.43897 | 29032 ft | 464 kts | 127° |
| 2026-04-27 03:57 | -15.97149 | -72.41174 | 28552 ft | 436 kts | 127° |
| 2026-04-27 03:57 | -15.98874 | -72.38567 | 27550 ft | 424 kts | 128° |
| 2026-04-27 03:57 | -16.00545 | -72.36033 | 26276 ft | 418 kts | 129° |
| 2026-04-27 03:58 | -16.02182 | -72.33552 | 25013 ft | 411 kts | 129° |
| 2026-04-27 03:58 | -16.03830 | -72.31069 | 23728 ft | 404 kts | 129° |
| 2026-04-27 03:58 | -16.05418 | -72.28699 | 22474 ft | 396 kts | 130° |
| 2026-04-27 03:58 | -16.07015 | -72.26342 | 21198 ft | 388 kts | 130° |
| 2026-04-27 03:59 | -16.08576 | -72.24058 | 19932 ft | 381 kts | 129° |
| 2026-04-27 03:59 | -16.10094 | -72.21852 | 18684 ft | 374 kts | 129° |
| 2026-04-27 03:59 | -16.11635 | -72.19613 | 17406 ft | 373 kts | 129° |
| 2026-04-27 03:59 | -16.13181 | -72.17362 | 16147 ft | 390 kts | 128° |
| 2026-04-27 04:00 | -16.14811 | -72.14975 | 15140 ft | 404 kts | 127° |
| 2026-04-27 04:00 | -16.16456 | -72.12518 | 14432 ft | 409 kts | 126° |
| 2026-04-27 04:00 | -16.18112 | -72.09989 | 13714 ft | 414 kts | 125° |
| 2026-04-27 04:00 | -16.19755 | -72.07440 | 13002 ft | 419 kts | 124° |
| 2026-04-27 04:01 | -16.21404 | -72.04861 | 12290 ft | 423 kts | 124° |
| 2026-04-27 04:01 | -16.23069 | -72.02252 | 11735 ft | 422 kts | 124° |
| 2026-04-27 04:01 | -16.24706 | -71.99680 | 11555 ft | 406 kts | 124° |
| 2026-04-27 04:01 | -16.26226 | -71.97292 | 11503 ft | 381 kts | 124° |
| 2026-04-27 04:02 | -16.27667 | -71.95042 | 11480 ft | 360 kts | 124° |
| 2026-04-27 04:02 | -16.29045 | -71.92903 | 11476 ft | 340 kts | 125° |
| 2026-04-27 04:02 | -16.30384 | -71.90843 | 11488 ft | 335 kts | 125° |
| 2026-04-27 04:02 | -16.31667 | -71.88769 | 11489 ft | 330 kts | 116° |
| 2026-04-27 04:03 | -16.32233 | -71.86455 | 11495 ft | 326 kts | 99° |
| 2026-04-27 04:03 | -16.32488 | -71.84055 | 11493 ft | 323 kts | 96° |
| 2026-04-27 04:03 | -16.32666 | -71.81657 | 11493 ft | 319 kts | 95° |
| 2026-04-27 04:03 | -16.32820 | -71.79330 | 11493 ft | 316 kts | 95° |
| 2026-04-27 04:04 | -16.32961 | -71.77114 | 11493 ft | 313 kts | 95° |
| 2026-04-27 04:04 | -16.33101 | -71.74886 | 11481 ft | 293 kts | 95° |
| 2026-04-27 04:04 | -16.33226 | -71.72810 | 11473 ft | 266 kts | 95° |
| 2026-04-27 04:04 | -16.33336 | -71.70911 | 11337 ft | 247 kts | 95° |
| 2026-04-27 04:05 | -16.33436 | -71.69154 | 11010 ft | 231 kts | 95° |
| 2026-04-27 04:05 | -16.33528 | -71.67542 | 10811 ft | 202 kts | 95° |
| 2026-04-27 04:05 | -16.33602 | -71.66207 | 10453 ft | 177 kts | 94° |
| 2026-04-27 04:05 | -16.33689 | -71.64986 | 9938 ft | 156 kts | 95° |
| 2026-04-27 04:06 | -16.33750 | -71.63884 | 9350 ft | 153 kts | 95° |
| 2026-04-27 04:06 | -16.33806 | -71.62769 | 8946 ft | 148 kts | 89° |
| 2026-04-27 04:06 | -16.33825 | -71.61682 | 8812 ft | 148 kts | 90° |
| 2026-04-27 04:07 | -16.33993 | -71.59518 | 8469 ft | 156 kts | 107° |
| 2026-04-27 04:07 | -16.34580 | -71.58572 | 8654 ft | 145 kts | 133° |
| 2026-04-27 04:07 | -16.35339 | -71.57866 | 8725 ft | 147 kts | 147° |
| 2026-04-27 04:07 | -16.36343 | -71.57368 | 8713 ft | 168 kts | 166° |
| 2026-04-27 04:08 | -16.37565 | -71.57315 | 8950 ft | 184 kts | 201° |
| 2026-04-27 04:08 | -16.38592 | -71.58143 | 9402 ft | 191 kts | 244° |
| 2026-04-27 04:08 | -16.38713 | -71.59497 | 9991 ft | 192 kts | 296° |
| 2026-04-27 04:08 | -16.38040 | -71.60720 | 10522 ft | 195 kts | 290° |
| 2026-04-27 04:09 | -16.37659 | -71.62247 | 10367 ft | 234 kts | 276° |
| 2026-04-27 04:09 | -16.37522 | -71.64026 | 10837 ft | 247 kts | 271° |
| 2026-04-27 04:09 | -16.37476 | -71.65941 | 10918 ft | 264 kts | 270° |
| 2026-04-27 04:09 | -16.37420 | -71.67910 | 11322 ft | 268 kts | 275° |
| 2026-04-27 04:10 | -16.36961 | -71.69759 | 11856 ft | 242 kts | 296° |
| 2026-04-27 04:10 | -16.35915 | -71.71027 | 12026 ft | 228 kts | 323° |
| 2026-04-27 04:10 | -16.34483 | -71.71780 | 11749 ft | 227 kts | 342° |
| 2026-04-27 04:10 | -16.32949 | -71.72190 | 11578 ft | 223 kts | 354° |
| 2026-04-27 04:11 | -16.31595 | -71.71697 | 11645 ft | 195 kts | 56° |
| 2026-04-27 04:11 | -16.31550 | -71.70375 | 11122 ft | 191 kts | 129° |
| 2026-04-27 04:11 | -16.32420 | -71.69317 | 10796 ft | 189 kts | 134° |
| 2026-04-27 04:11 | -16.33241 | -71.68263 | 10645 ft | 170 kts | 121° |
| 2026-04-27 04:12 | -16.33542 | -71.67132 | 10496 ft | 160 kts | 98° |
| 2026-04-27 04:12 | -16.33627 | -71.65943 | 10295 ft | 162 kts | 92° |
| 2026-04-27 04:12 | -16.33660 | -71.64754 | 10065 ft | 160 kts | 93° |
| 2026-04-27 04:12 | -16.33740 | -71.63562 | 9791 ft | 162 kts | 96° |
| 2026-04-27 04:13 | -16.33805 | -71.62359 | 9524 ft | 164 kts | 91° |
| 2026-04-27 04:13 | -16.33832 | -71.61171 | 9141 ft | 164 kts | 94° |
| 2026-04-27 04:13 | -16.33910 | -71.59976 | 8699 ft | 162 kts | 90° |
| 2026-04-27 04:13 | -16.33959 | -71.58835 | 8369 ft | 148 kts | 91° |
| 2026-04-27 04:14 | -16.34021 | -71.57803 | 8318 ft | 126 kts | 92° |
| 2026-04-27 04:14 | -16.34058 | -71.57065 | 8372 ft | 69 kts | 94° |
| 2026-04-27 04:14 | -16.34079 | -71.56678 | 8398 ft | 45 kts | 93° |
| 2026-04-27 04:14 | -16.34088 | -71.56512 | 8407 ft | 8 kts | 94° |
| 2026-04-27 04:15 | -16.34092 | -71.56435 | 8410 ft | 13 kts | 94° |
| 2026-04-27 04:15 | -16.34098 | -71.56313 | 8415 ft | 21 kts | 92° |
| 2026-04-27 04:15 | -16.34108 | -71.56126 | 8422 ft | 25 kts | 93° |
| 2026-04-27 04:15 | -16.34116 | -71.55939 | 8420 ft | 21 kts | 93° |
| 2026-04-27 04:16 | -16.34123 | -71.55802 | 8417 ft | 10 kts | 93° |
| 2026-04-27 04:16 | -16.34134 | -71.55733 | 8416 ft | 5 kts | 138° |
| 2026-04-27 04:16 | -16.34164 | -71.55738 | 8416 ft | 5 kts | 221° |
| 2026-04-27 04:16 | -16.34196 | -71.55774 | 8414 ft | 7 kts | 231° |
| 2026-04-27 04:17 | -16.34220 | -71.55815 | 8414 ft | 6 kts | 242° |
| 2026-04-27 04:17 | -16.34241 | -71.55856 | 8413 ft | 6 kts | 241° |
| 2026-04-27 04:17 | -16.34278 | -71.55915 | 8407 ft | 14 kts | 236° |
| 2026-04-27 04:17 | -16.34352 | -71.56032 | 8389 ft | 16 kts | 237° |
| 2026-04-27 04:18 | -16.34378 | -71.56155 | 8383 ft | 18 kts | 273° |
| 2026-04-27 04:18 | -16.34370 | -71.56321 | 8363 ft | 27 kts | 274° |
| 2026-04-27 04:18 | -16.34357 | -71.56552 | 8347 ft | 32 kts | 270° |
| 2026-04-27 04:18 | -16.34351 | -71.56686 | 8347 ft | 14 kts | 273° |
| 2026-04-27 04:19 | -16.34347 | -71.56776 | 8347 ft | 9 kts | 273° |
| 2026-04-27 04:19 | -16.34365 | -71.56834 | 8347 ft | 8 kts | 216° |
| 2026-04-27 04:19 | -16.34382 | -71.56847 | 8347 ft | 0 kts | 214° |